Time;durP1;ratioP1;P1;durP2;ratioP2;P2;SDS_P1;SDS_P2;PMS_P1;PMS_P2;Temp;Humidity;BMP_temperature;BMP_pressure;BME280_temperature;BME280_humidity;BME280_pressure;Samples;Min_cycle;Max_cycle;Signal;HPM_P1;HPM_P2
2023/09/06 00:00:43;;;;;;;5.65;3.28;;;20.20;99.90;;;;;;5039563;28;20045;-84
2023/09/06 00:03:12;;;;;;;4.93;3.45;;;20.20;99.90;;;;;;5037186;28;20582;-85
2023/09/06 00:05:41;;;;;;;4.78;3.80;;;20.10;99.90;;;;;;5044156;28;20049;-86
2023/09/06 00:08:09;;;;;;;8.10;3.50;;;20.10;99.90;;;;;;5041568;28;20532;-84
2023/09/06 00:10:38;;;;;;;5.82;3.65;;;20.10;99.90;;;;;;5040189;28;20049;-84
2023/09/06 00:13:06;;;;;;;5.38;3.70;;;20.10;99.90;;;;;;5042880;28;20052;-85
2023/09/06 00:15:32;;;;;;;5.88;3.67;;;20.00;99.90;;;;;;5032871;28;20053;-85
2023/09/06 00:17:57;;;;;;;7.00;3.80;;;20.00;99.90;;;;;;5043128;28;20095;-85
2023/09/06 00:20:24;;;;;;;6.13;3.90;;;20.00;99.90;;;;;;5044436;28;20738;-87
2023/09/06 00:23:01;;;;;;;6.70;3.55;;;19.90;99.90;;;;;;5044345;28;20132;-85
2023/09/06 00:25:31;;;;;;;4.65;3.40;;;19.90;99.90;;;;;;5031648;28;20044;-84
2023/09/06 00:27:59;;;;;;;5.80;4.00;;;19.80;99.90;;;;;;5046650;28;20049;-87
2023/09/06 00:30:25;;;;;;;5.72;3.72;;;19.80;99.90;;;;;;5043757;28;20552;-87
2023/09/06 00:32:52;;;;;;;5.68;3.88;;;19.70;99.90;;;;;;5043768;28;20125;-87
2023/09/06 00:35:25;;;;;;;7.85;4.70;;;19.70;99.90;;;;;;5039680;28;20673;-85
2023/09/06 00:37:51;;;;;;;4.78;3.90;;;19.70;99.90;;;;;;5044558;28;20551;-87
2023/09/06 00:40:18;;;;;;;5.53;4.03;;;19.60;99.90;;;;;;5044162;28;20043;-84
2023/09/06 00:42:52;;;;;;;5.78;4.00;;;19.60;99.90;;;;;;5040842;28;20045;-85
2023/09/06 00:45:26;;;;;;;5.60;4.13;;;19.70;99.90;;;;;;5038071;28;20052;-85
2023/09/06 00:47:55;;;;;;;6.90;4.20;;;19.70;99.90;;;;;;5042891;28;20147;-85
2023/09/06 00:50:21;;;;;;;4.32;3.92;;;19.70;99.90;;;;;;5031165;28;20392;-84
2023/09/06 00:52:49;;;;;;;6.50;4.00;;;19.70;99.90;;;;;;5039530;28;20041;-84
2023/09/06 00:55:15;;;;;;;4.57;4.18;;;19.70;99.90;;;;;;5035759;28;20057;-85
2023/09/06 00:57:42;;;;;;;4.90;3.85;;;19.70;99.90;;;;;;5044823;28;20064;-87
2023/09/06 01:00:14;;;;;;;5.43;3.97;;;19.70;99.90;;;;;;5048321;28;20534;-85
2023/09/06 01:02:40;;;;;;;5.93;4.10;;;19.60;99.90;;;;;;5050541;28;20055;-85
2023/09/06 01:05:06;;;;;;;7.78;3.92;;;19.70;99.90;;;;;;5049960;28;20602;-85
2023/09/06 01:07:36;;;;;;;5.32;4.28;;;19.60;99.90;;;;;;5042332;28;20059;-85
2023/09/06 01:10:05;;;;;;;4.97;4.05;;;19.70;99.90;;;;;;5035350;28;20044;-84
2023/09/06 01:12:34;;;;;;;7.47;3.90;;;19.60;99.90;;;;;;5045228;28;20404;-85
2023/09/06 01:15:04;;;;;;;4.85;3.90;;;19.60;99.90;;;;;;5041803;28;20536;-87
2023/09/06 01:17:33;;;;;;;5.80;4.43;;;19.60;99.90;;;;;;5044930;28;20083;-85
2023/09/06 01:20:31;;;;;;;6.30;3.55;;;19.60;99.90;;;;;;5037478;28;20251;-84
2023/09/06 01:23:09;;;;;;;4.63;3.47;;;19.60;99.90;;;;;;5034798;28;20191;-87
2023/09/06 01:25:34;;;;;;;4.57;3.55;;;19.60;99.90;;;;;;5046383;28;20451;-85
2023/09/06 01:28:00;;;;;;;4.85;3.90;;;19.60;99.90;;;;;;5043317;28;20051;-85
2023/09/06 01:30:30;;;;;;;6.95;3.88;;;19.60;99.90;;;;;;5040536;28;20511;-85
2023/09/06 01:32:56;;;;;;;5.80;3.70;;;19.60;99.90;;;;;;5046506;28;20037;-86
2023/09/06 01:35:22;;;;;;;8.85;4.15;;;19.60;99.90;;;;;;5039335;28;20546;-86
2023/09/06 01:37:50;;;;;;;5.45;4.47;;;19.60;99.90;;;;;;5053028;28;20048;-86
2023/09/06 01:40:18;;;;;;;4.25;3.85;;;19.60;99.90;;;;;;5050745;28;20081;-85
2023/09/06 01:42:44;;;;;;;5.05;3.53;;;19.60;99.90;;;;;;5037319;28;20079;-84
2023/09/06 01:45:10;;;;;;;6.07;4.30;;;19.60;99.90;;;;;;5049829;28;20055;-86
2023/09/06 01:47:36;;;;;;;6.05;4.10;;;19.50;99.90;;;;;;5045493;28;20037;-86
2023/09/06 01:50:04;;;;;;;5.07;4.40;;;19.40;99.90;;;;;;5034862;28;20049;-84
2023/09/06 01:52:30;;;;;;;5.90;4.30;;;19.40;99.90;;;;;;5044158;28;20048;-84
2023/09/06 01:54:55;;;;;;;6.63;4.43;;;19.40;99.90;;;;;;5039061;28;21664;-84
2023/09/06 01:57:21;;;;;;;6.82;4.70;;;19.30;99.90;;;;;;5045719;28;20449;-85
2023/09/06 01:59:50;;;;;;;5.10;4.15;;;19.30;99.90;;;;;;5047848;28;20368;-85
2023/09/06 02:02:16;;;;;;;6.53;4.95;;;19.30;99.90;;;;;;5045190;28;20187;-85
2023/09/06 02:04:42;;;;;;;6.20;4.28;;;19.30;99.90;;;;;;5047825;28;20041;-86
2023/09/06 02:07:07;;;;;;;5.57;4.40;;;19.20;99.90;;;;;;5048153;28;20488;-85
2023/09/06 02:09:33;;;;;;;6.25;4.30;;;19.10;99.90;;;;;;5041839;28;20041;-85
2023/09/06 02:11:59;;;;;;;7.47;4.53;;;19.10;99.90;;;;;;5041618;28;20055;-84
2023/09/06 02:14:25;;;;;;;6.35;4.00;;;19.10;99.90;;;;;;5039179;28;20044;-86
2023/09/06 02:16:50;;;;;;;6.90;4.32;;;19.00;99.90;;;;;;5044546;28;20041;-84
2023/09/06 02:19:16;;;;;;;7.15;4.45;;;19.00;99.90;;;;;;5042335;28;20073;-84
2023/09/06 02:21:42;;;;;;;8.00;4.25;;;19.00;99.90;;;;;;5041112;28;20053;-86
2023/09/06 02:24:08;;;;;;;6.07;4.22;;;18.90;99.90;;;;;;5042442;28;20515;-84
2023/09/06 02:26:35;;;;;;;5.80;4.10;;;18.90;99.90;;;;;;5048032;28;20762;-84
2023/09/06 02:29:00;;;;;;;9.07;4.10;;;18.90;99.90;;;;;;5041346;28;20500;-84
2023/09/06 02:31:26;;;;;;;5.78;4.10;;;18.90;99.90;;;;;;5038925;28;20048;-85
2023/09/06 02:33:52;;;;;;;5.93;4.53;;;18.90;99.90;;;;;;5043833;28;20033;-84
2023/09/06 02:36:18;;;;;;;4.80;4.28;;;18.90;99.90;;;;;;5042204;28;20041;-85
2023/09/06 02:38:44;;;;;;;6.80;4.28;;;18.80;99.90;;;;;;5041191;28;20047;-87
2023/09/06 02:41:11;;;;;;;5.57;4.22;;;18.80;99.90;;;;;;5047729;28;20083;-86
2023/09/06 02:43:37;;;;;;;;;;;18.80;99.90;;;;;;5046438;28;20051;-86
2023/09/06 02:46:03;;;;;;;6.73;4.17;;;18.70;99.90;;;;;;5047195;28;19921;-85
2023/09/06 02:48:29;;;;;;;5.65;4.15;;;18.70;99.90;;;;;;5047296;28;20049;-85
2023/09/06 02:50:56;;;;;;;5.18;4.40;;;18.70;99.90;;;;;;5044056;28;20488;-85
2023/09/06 02:53:22;;;;;;;5.45;4.18;;;18.70;99.90;;;;;;5043001;28;20157;-86
2023/09/06 02:55:51;;;;;;;6.60;4.30;;;18.70;99.90;;;;;;5045168;28;20548;-85
2023/09/06 02:58:24;;;;;;;4.80;4.07;;;18.70;99.90;;;;;;5042313;28;20044;-85
2023/09/06 03:00:55;;;;;;;6.53;3.72;;;18.60;99.90;;;;;;5042086;28;20068;-84
2023/09/06 03:03:21;;;;;;;6.50;4.30;;;18.60;99.90;;;;;;5048154;28;20048;-86
2023/09/06 03:05:47;;;;;;;5.90;4.00;;;18.60;99.90;;;;;;5049463;28;20068;-84
2023/09/06 03:08:13;;;;;;;6.32;4.63;;;18.60;99.90;;;;;;5039501;28;20106;-85
2023/09/06 03:10:40;;;;;;;5.72;4.20;;;18.60;99.90;;;;;;5041034;28;20048;-86
2023/09/06 03:13:08;;;;;;;6.68;4.03;;;18.60;99.90;;;;;;5044326;28;20049;-85
2023/09/06 03:15:35;;;;;;;5.68;4.38;;;18.60;99.90;;;;;;5038847;28;20055;-84
2023/09/06 03:18:02;;;;;;;7.38;5.03;;;18.60;99.90;;;;;;5040513;28;20063;-86
2023/09/06 03:20:33;;;;;;;5.60;4.47;;;18.60;99.90;;;;;;5040609;28;20167;-85
2023/09/06 03:23:01;;;;;;;5.55;4.50;;;18.60;99.90;;;;;;5040210;28;20504;-85
2023/09/06 03:25:28;;;;;;;5.00;4.50;;;18.60;99.90;;;;;;5033769;28;20045;-87
2023/09/06 03:28:01;;;;;;;6.45;4.90;;;18.60;99.90;;;;;;5045680;28;20045;-85
2023/09/06 03:30:30;;;;;;;5.25;4.65;;;18.60;99.90;;;;;;5052009;28;20125;-84
2023/09/06 03:32:57;;;;;;;6.43;4.72;;;18.60;99.90;;;;;;5043224;28;20129;-86
2023/09/06 03:35:23;;;;;;;6.18;4.85;;;18.60;99.90;;;;;;5044142;28;20040;-86
2023/09/06 03:37:52;;;;;;;7.60;4.65;;;18.60;99.90;;;;;;5042704;28;20451;-86
2023/09/06 03:40:25;;;;;;;9.00;5.47;;;18.60;99.90;;;;;;5036402;28;20507;-85
2023/09/06 03:42:53;;;;;;;6.38;5.03;;;18.50;99.90;;;;;;5033405;28;20041;-84
2023/09/06 03:45:21;;;;;;;7.80;5.28;;;18.50;99.90;;;;;;5036909;28;20393;-87
2023/09/06 03:47:54;;;;;;;8.30;5.20;;;18.50;99.90;;;;;;5034452;28;20045;-87
2023/09/06 03:50:21;;;;;;;8.85;5.30;;;18.50;99.90;;;;;;5043318;28;20039;-85
2023/09/06 03:52:48;;;;;;;7.07;4.75;;;18.50;99.90;;;;;;5047414;28;20041;-85
2023/09/06 03:55:16;;;;;;;5.78;4.82;;;18.50;99.90;;;;;;5044312;28;20056;-86
2023/09/06 03:57:42;;;;;;;5.63;5.10;;;18.50;99.90;;;;;;5044657;28;20102;-84
2023/09/06 04:00:20;;;;;;;5.90;4.68;;;18.40;99.90;;;;;;5041248;28;20057;-85
2023/09/06 04:02:47;;;;;;;5.50;4.68;;;18.40;99.90;;;;;;5036171;28;20049;-84
2023/09/06 04:05:13;;;;;;;7.70;5.10;;;18.30;99.90;;;;;;5045219;28;20037;-85
2023/09/06 04:07:39;;;;;;;10.25;5.70;;;18.30;99.90;;;;;;5046813;28;20053;-84
2023/09/06 04:10:16;;;;;;;7.97;5.20;;;18.30;99.90;;;;;;5041503;28;20133;-87
2023/09/06 04:12:43;;;;;;;8.25;5.13;;;18.30;99.90;;;;;;5045380;28;20115;-86
2023/09/06 04:15:12;;;;;;;5.97;5.07;;;18.20;99.90;;;;;;5037229;28;20032;-85
2023/09/06 04:17:40;;;;;;;8.30;5.47;;;18.20;99.90;;;;;;5032832;28;20051;-86
2023/09/06 04:20:20;;;;;;;8.05;5.30;;;18.20;99.90;;;;;;5037781;28;20049;-88
2023/09/06 04:22:51;;;;;;;7.50;5.22;;;18.20;99.90;;;;;;5038842;28;20084;-85
2023/09/06 04:25:17;;;;;;;8.32;5.00;;;18.10;99.90;;;;;;5047048;28;20068;-87
2023/09/06 04:27:44;;;;;;;6.43;5.28;;;18.10;99.90;;;;;;5042694;28;20064;-87
2023/09/06 04:30:11;;;;;;;7.68;5.70;;;18.00;99.90;;;;;;5041989;28;20117;-85
2023/09/06 04:32:37;;;;;;;6.40;5.05;;;17.90;99.90;;;;;;5046007;28;20044;-85
2023/09/06 04:35:04;;;;;;;8.90;5.53;;;17.90;99.90;;;;;;5050771;28;20037;-85
2023/09/06 04:37:29;;;;;;;6.95;5.43;;;17.90;99.90;;;;;;5042364;28;20134;-87
2023/09/06 04:39:55;;;;;;;7.35;5.75;;;17.80;99.90;;;;;;5052441;28;20069;-86
2023/09/06 04:42:21;;;;;;;7.75;5.63;;;17.80;99.90;;;;;;5051781;28;20132;-86
2023/09/06 04:44:47;;;;;;;7.20;5.70;;;17.80;99.90;;;;;;5044005;28;20537;-85
2023/09/06 04:47:15;;;;;;;8.00;6.25;;;17.80;99.90;;;;;;5051010;28;20041;-84
2023/09/06 04:49:45;;;;;;;9.45;6.10;;;17.80;99.90;;;;;;5043382;28;20048;-85
2023/09/06 04:52:11;;;;;;;8.13;5.82;;;17.80;99.90;;;;;;5049208;28;20492;-86
2023/09/06 04:54:36;;;;;;;8.60;5.65;;;17.80;99.90;;;;;;5050740;28;20052;-86
2023/09/06 04:57:02;;;;;;;7.00;6.30;;;17.90;99.90;;;;;;5050178;28;20033;-85
2023/09/06 04:59:28;;;;;;;6.38;5.75;;;17.80;99.90;;;;;;5054073;28;20065;-85
2023/09/06 05:01:54;;;;;;;8.90;5.65;;;17.80;99.90;;;;;;5046385;28;20040;-86
2023/09/06 05:04:19;;;;;;;6.90;5.38;;;17.90;99.90;;;;;;5053780;28;20055;-85
2023/09/06 05:06:45;;;;;;;6.28;5.47;;;17.90;99.90;;;;;;5045993;28;20103;-85
2023/09/06 05:09:15;;;;;;;6.82;5.40;;;17.90;99.90;;;;;;5045247;28;20044;-86
2023/09/06 05:11:41;;;;;;;7.88;6.13;;;17.90;99.90;;;;;;5041443;28;20045;-86
2023/09/06 05:14:06;;;;;;;7.35;5.70;;;17.90;99.90;;;;;;5047974;28;20041;-87
2023/09/06 05:16:32;;;;;;;7.68;5.43;;;17.90;99.90;;;;;;5048814;28;20073;-85
2023/09/06 05:18:58;;;;;;;7.05;5.10;;;17.90;99.90;;;;;;5052552;28;20051;-84
2023/09/06 05:21:23;;;;;;;8.32;5.60;;;18.00;99.90;;;;;;5046762;28;20072;-84
2023/09/06 05:23:49;;;;;;;6.10;5.50;;;18.00;99.90;;;;;;5051421;28;20131;-85
2023/09/06 05:26:15;;;;;;;6.72;5.72;;;18.00;99.90;;;;;;5050798;28;20041;-87
2023/09/06 05:28:42;;;;;;;6.63;5.60;;;18.00;99.90;;;;;;5050584;28;20045;-85
2023/09/06 05:31:09;;;;;;;;;;;18.10;99.90;;;;;;5040931;28;20041;-85
2023/09/06 05:33:34;;;;;;;9.45;6.07;;;18.10;99.90;;;;;;5036904;28;19917;-84
2023/09/06 05:36:01;;;;;;;8.20;6.05;;;18.10;99.90;;;;;;5050899;28;20514;-82
2023/09/06 05:38:26;;;;;;;6.90;6.20;;;18.10;99.90;;;;;;5058863;28;20037;-83
2023/09/06 05:40:53;;;;;;;8.18;6.30;;;18.10;99.90;;;;;;5040218;28;20118;-84
2023/09/06 05:43:19;;;;;;;6.80;5.77;;;18.20;99.90;;;;;;5040290;28;20098;-82
2023/09/06 05:45:44;;;;;;;7.50;6.68;;;18.30;99.90;;;;;;5044542;28;20053;-82
2023/09/06 05:48:10;;;;;;;7.03;6.00;;;18.30;99.90;;;;;;5046499;28;20049;-82
2023/09/06 05:50:36;;;;;;;6.93;6.00;;;18.30;99.90;;;;;;5033929;28;20071;-81
2023/09/06 05:53:02;;;;;;;8.02;6.05;;;18.30;99.90;;;;;;5038479;28;20052;-83
2023/09/06 05:55:28;;;;;;;7.03;5.90;;;18.40;99.90;;;;;;5040884;28;20044;-83
2023/09/06 05:57:53;;;;;;;6.63;5.88;;;18.40;99.90;;;;;;5038169;28;20123;-84
2023/09/06 06:00:21;;;;;;;8.30;5.78;;;18.40;99.90;;;;;;5042413;28;20472;-85
2023/09/06 06:02:48;;;;;;;7.28;5.60;;;18.50;99.90;;;;;;5041303;28;20069;-84
2023/09/06 06:05:15;;;;;;;6.50;5.78;;;18.50;99.90;;;;;;5041826;28;20130;-84
2023/09/06 06:07:41;;;;;;;6.30;5.70;;;18.50;99.90;;;;;;5040799;28;20045;-83
2023/09/06 06:10:09;;;;;;;6.73;5.83;;;18.60;99.90;;;;;;5039173;28;20033;-85
2023/09/06 06:12:37;;;;;;;7.43;5.40;;;18.70;99.90;;;;;;5047083;28;20307;-82
2023/09/06 06:15:04;;;;;;;7.78;5.85;;;18.70;99.90;;;;;;5041035;28;20044;-85
2023/09/06 06:17:30;;;;;;;9.65;5.80;;;18.80;99.90;;;;;;5034872;28;20033;-84
2023/09/06 06:19:56;;;;;;;6.88;5.80;;;18.90;99.90;;;;;;5043958;28;20025;-84
2023/09/06 06:22:21;;;;;;;6.35;5.60;;;18.90;99.90;;;;;;5036356;28;20071;-82
2023/09/06 06:24:47;;;;;;;9.70;5.60;;;18.90;99.90;;;;;;5039961;28;20033;-82
2023/09/06 06:27:13;;;;;;;8.85;5.88;;;19.00;99.90;;;;;;5043178;28;20080;-83
2023/09/06 06:29:39;;;;;;;8.95;5.75;;;19.00;99.90;;;;;;5036502;28;20064;-82
2023/09/06 06:32:05;;;;;;;6.28;5.45;;;19.10;99.90;;;;;;5043337;28;20049;-82
2023/09/06 06:34:31;;;;;;;7.05;5.60;;;19.20;99.90;;;;;;5039176;28;20040;-80
2023/09/06 06:36:58;;;;;;;7.63;5.45;;;19.20;99.90;;;;;;5046016;28;20045;-82
2023/09/06 06:39:24;;;;;;;8.65;5.65;;;19.30;99.90;;;;;;5042742;28;20041;-83
2023/09/06 06:41:50;;;;;;;6.00;5.32;;;19.40;99.90;;;;;;5037749;28;20053;-82
2023/09/06 06:44:16;;;;;;;7.03;5.18;;;19.50;99.90;;;;;;5038520;28;20175;-87
2023/09/06 06:46:42;;;;;;;6.35;4.88;;;19.50;99.90;;;;;;5044994;28;20095;-82
2023/09/06 06:49:08;;;;;;;6.55;4.90;;;19.60;99.90;;;;;;5034215;28;20048;-81
2023/09/06 06:51:38;;;;;;;6.50;5.47;;;19.60;99.90;;;;;;5046303;28;20401;-81
2023/09/06 06:54:08;;;;;;;5.82;5.05;;;19.70;99.90;;;;;;5041666;28;20037;-89
2023/09/06 06:56:36;;;;;;;8.02;5.93;;;19.80;99.90;;;;;;5057690;28;20127;-87
2023/09/06 06:59:03;;;;;;;6.00;5.22;;;19.80;99.90;;;;;;5057674;28;20056;-89
2023/09/06 07:01:29;;;;;;;6.53;5.22;;;19.90;99.90;;;;;;5068839;28;20040;-88
2023/09/06 07:03:55;;;;;;;7.00;5.53;;;19.90;99.90;;;;;;5050508;28;20033;-89
2023/09/06 07:06:23;;;;;;;6.75;4.82;;;20.00;99.90;;;;;;5048653;28;20086;-88
2023/09/06 07:08:49;;;;;;;7.20;5.47;;;20.10;99.90;;;;;;5053300;28;20567;-88
2023/09/06 07:11:16;;;;;;;8.33;5.60;;;20.20;99.90;;;;;;5039461;28;20049;-88
2023/09/06 07:13:42;;;;;;;8.52;4.78;;;20.20;99.90;;;;;;5055493;28;20295;-87
2023/09/06 07:16:09;;;;;;;8.38;4.97;;;20.30;99.90;;;;;;5051866;28;20037;-89
2023/09/06 07:18:35;;;;;;;5.78;4.88;;;20.40;99.90;;;;;;5051068;28;20041;-89
2023/09/06 07:21:04;;;;;;;6.07;4.80;;;20.50;99.90;;;;;;5045302;28;20069;-93
2023/09/06 07:23:29;;;;;;;6.35;4.80;;;20.50;99.90;;;;;;5046673;28;20040;-90
2023/09/06 07:25:55;;;;;;;5.47;4.68;;;20.50;99.90;;;;;;5047213;28;20078;-90
2023/09/06 07:28:25;;;;;;;6.15;4.13;;;20.70;99.90;;;;;;5045252;28;20045;-96
2023/09/06 07:30:51;;;;;;;5.85;4.75;;;20.70;99.90;;;;;;5042837;28;20098;-81
2023/09/06 07:33:16;;;;;;;7.18;4.30;;;20.80;99.90;;;;;;5037049;28;20045;-86
2023/09/06 07:35:42;;;;;;;4.90;4.35;;;20.80;99.90;;;;;;5049744;28;20056;-81
2023/09/06 07:38:08;;;;;;;7.03;4.38;;;20.90;99.90;;;;;;5050683;28;20049;-83
2023/09/06 07:40:34;;;;;;;5.07;4.18;;;21.00;99.90;;;;;;5048147;28;20045;-95
2023/09/06 07:43:01;;;;;;;4.50;3.60;;;21.00;99.90;;;;;;5046620;28;20179;-91
2023/09/06 07:45:26;;;;;;;4.72;3.83;;;21.10;99.90;;;;;;5053980;28;20079;-94
2023/09/06 07:47:54;;;;;;;6.22;3.88;;;21.20;99.90;;;;;;5046912;28;20464;-87
2023/09/06 07:50:20;;;;;;;4.43;4.00;;;21.30;99.90;;;;;;5046465;28;20122;-85
2023/09/06 07:52:46;;;;;;;5.18;3.60;;;21.40;99.90;;;;;;5048139;28;20530;-84
2023/09/06 07:55:13;;;;;;;4.80;3.83;;;21.40;99.90;;;;;;5048287;28;20136;-92
2023/09/06 07:57:38;;;;;;;5.95;3.97;;;21.50;99.90;;;;;;5045036;28;20630;-89
2023/09/06 08:00:06;;;;;;;4.30;3.17;;;21.60;99.90;;;;;;5042669;28;20044;-90
2023/09/06 08:02:31;;;;;;;;;;;21.60;99.90;;;;;;5042505;28;20567;-86
2023/09/06 08:04:57;;;;;;;6.27;3.70;;;21.70;99.90;;;;;;5037335;28;19916;-86
2023/09/06 08:07:23;;;;;;;5.05;3.50;;;21.70;99.90;;;;;;5046042;28;20114;-88
2023/09/06 08:09:49;;;;;;;5.82;3.63;;;21.80;99.90;;;;;;5041831;28;20053;-82
2023/09/06 08:12:15;;;;;;;5.72;4.00;;;21.90;99.90;;;;;;5045417;28;20045;-85
2023/09/06 08:14:42;;;;;;;7.05;3.38;;;22.00;99.90;;;;;;5049067;28;20067;-84
2023/09/06 08:17:08;;;;;;;4.80;3.07;;;22.10;99.90;;;;;;5049840;28;20048;-84
2023/09/06 08:19:34;;;;;;;5.38;3.30;;;22.20;99.90;;;;;;5046694;28;20052;-86
2023/09/06 08:22:00;;;;;;;5.72;2.90;;;22.30;99.90;;;;;;5040619;28;20132;-85
2023/09/06 08:24:25;;;;;;;5.15;2.92;;;22.30;99.90;;;;;;5042805;28;20041;-87
2023/09/06 08:26:51;;;;;;;5.47;3.13;;;22.40;99.90;;;;;;5037132;28;20132;-85
2023/09/06 08:29:17;;;;;;;4.38;2.85;;;22.50;99.90;;;;;;5033349;28;20041;-86
2023/09/06 08:31:42;;;;;;;4.15;2.88;;;22.60;99.90;;;;;;5038901;28;20041;-84
2023/09/06 08:34:10;;;;;;;5.45;2.88;;;22.70;99.90;;;;;;5049670;28;20055;-86
2023/09/06 08:36:36;;;;;;;4.45;2.80;;;22.70;99.90;;;;;;5047749;28;20076;-83
2023/09/06 08:39:02;;;;;;;3.20;2.70;;;22.90;99.90;;;;;;5044289;28;20452;-88
2023/09/06 08:41:31;;;;;;;4.80;2.92;;;22.90;99.90;;;;;;5039250;28;20103;-88
2023/09/06 08:44:00;;;;;;;3.55;2.90;;;23.00;99.90;;;;;;5046411;28;20540;-86
2023/09/06 08:46:33;;;;;;;4.63;2.58;;;23.00;99.90;;;;;;5041103;28;20052;-83
2023/09/06 08:49:04;;;;;;;5.45;2.75;;;23.10;99.90;;;;;;5045924;28;20103;-82
2023/09/06 08:51:35;;;;;;;7.40;3.20;;;23.20;99.90;;;;;;5042268;28;20439;-86
2023/09/06 08:54:07;;;;;;;4.10;2.60;;;23.30;99.90;;;;;;5044097;28;20094;-87
2023/09/06 08:56:33;;;;;;;5.90;2.75;;;23.40;99.90;;;;;;5046980;28;20045;-89
2023/09/06 08:59:00;;;;;;;6.53;2.75;;;23.40;99.90;;;;;;5034740;28;20124;-91
2023/09/06 09:01:28;;;;;;;3.72;2.75;;;23.50;99.90;;;;;;5046689;28;20102;-94
2023/09/06 09:03:53;;;;;;;3.72;2.60;;;23.60;99.90;;;;;;5042982;28;20400;-82
2023/09/06 09:06:20;;;;;;;4.43;2.65;;;23.60;99.90;;;;;;5052939;28;20056;-90
2023/09/06 09:08:46;;;;;;;4.03;2.95;;;23.70;99.90;;;;;;5041644;28;20048;-84
2023/09/06 09:11:14;;;;;;;3.83;2.63;;;23.80;99.90;;;;;;5047461;28;20653;-84
2023/09/06 09:13:41;;;;;;;5.22;2.85;;;23.90;99.90;;;;;;5040830;28;20045;-83
2023/09/06 09:16:08;;;;;;;;;;;23.90;99.90;;;;;;5047356;28;20122;-87
2023/09/06 09:18:38;;;;;;;3.47;2.92;;;24.00;99.90;;;;;;5047294;28;19921;-86
2023/09/06 09:21:07;;;;;;;4.47;2.80;;;24.10;99.90;;;;;;5044851;28;20106;-85
2023/09/06 09:23:40;;;;;;;3.55;2.70;;;24.20;99.90;;;;;;5043969;28;20051;-84
2023/09/06 09:26:08;;;;;;;3.58;2.70;;;24.20;99.90;;;;;;5049360;28;20052;-93
2023/09/06 09:28:35;;;;;;;3.80;2.50;;;24.30;99.90;;;;;;5043241;28;20120;-95
2023/09/06 09:31:01;;;;;;;3.78;2.95;;;24.40;99.90;;;;;;5055912;28;20049;-91
2023/09/06 09:33:28;;;;;;;3.15;2.30;;;24.40;99.90;;;;;;5050452;28;20128;-82
2023/09/06 09:35:55;;;;;;;;;;;24.50;99.90;;;;;;5054262;28;20041;-93
2023/09/06 09:38:21;;;;;;;;;;;24.60;99.90;;;;;;5049549;28;19926;-89
2023/09/06 09:41:04;;;;;;;4.47;2.57;;;24.60;99.90;;;;;;5045614;28;19927;-87
2023/09/06 09:43:30;;;;;;;4.22;2.72;;;24.80;99.90;;;;;;5046982;28;20373;-90
2023/09/06 09:45:56;;;;;;;4.15;2.97;;;24.80;99.90;;;;;;5052054;28;20098;-89
2023/09/06 09:48:26;;;;;;;3.55;2.80;;;24.90;99.90;;;;;;5045990;28;20439;-95
2023/09/06 09:50:54;;;;;;;5.10;2.80;;;24.90;99.90;;;;;;5069575;28;20041;-92
2023/09/06 09:53:23;;;;;;;3.22;2.53;;;25.00;99.90;;;;;;5063267;28;20025;-95
2023/09/06 09:55:53;;;;;;;4.75;2.70;;;25.00;99.90;;;;;;5061680;28;20024;-94
2023/09/06 09:58:20;;;;;;;3.50;2.72;;;25.10;99.90;;;;;;5051174;28;20049;-77
2023/09/06 10:00:49;;;;;;;2.78;2.40;;;25.10;99.90;;;;;;5049756;28;20779;-85
2023/09/06 10:03:16;;;;;;;5.07;2.80;;;25.20;99.90;;;;;;5047888;28;20044;-81
2023/09/06 10:05:42;;;;;;;4.63;2.60;;;25.20;99.90;;;;;;5044992;28;20067;-83
2023/09/06 10:08:09;;;;;;;5.13;2.47;;;25.30;99.90;;;;;;5039396;28;20067;-83
2023/09/06 10:10:39;;;;;;;3.97;2.50;;;25.30;99.90;;;;;;5053645;28;20041;-86
2023/09/06 10:13:07;;;;;;;3.97;2.50;;;25.40;99.90;;;;;;5058356;28;20047;-85
2023/09/06 10:15:35;;;;;;;3.78;2.58;;;25.50;99.90;;;;;;5048829;28;20053;-78
2023/09/06 10:18:01;;;;;;;5.03;2.70;;;25.60;99.90;;;;;;5043352;28;20102;-84
2023/09/06 10:20:30;;;;;;;2.78;2.47;;;25.60;99.90;;;;;;5072802;28;20041;-80
2023/09/06 10:22:57;;;;;;;3.35;2.40;;;25.70;99.90;;;;;;5053002;28;20041;-85
2023/09/06 10:25:25;;;;;;;3.65;2.67;;;25.80;99.90;;;;;;5054249;28;20040;-81
2023/09/06 10:27:59;;;;;;;3.70;2.80;;;25.90;99.90;;;;;;5055051;28;20102;-80
2023/09/06 10:30:48;;;;;;;4.25;2.40;;;26.00;99.90;;;;;;5047699;28;20051;-86
2023/09/06 10:33:35;;;;;;;5.28;2.90;;;26.00;99.90;;;;;;5048948;28;20128;-90
2023/09/06 10:36:12;;;;;;;6.40;2.95;;;26.10;99.90;;;;;;5048319;28;20049;-91
2023/09/06 10:39:14;;;;;;;3.15;2.72;;;26.10;99.90;;;;;;5048587;28;20048;-89
2023/09/06 10:42:08;;;;;;;3.40;2.15;;;26.30;99.90;;;;;;5045040;28;20059;-91
2023/09/06 10:44:56;;;;;;;3.75;2.55;;;26.40;99.90;;;;;;5041287;28;20515;-85
2023/09/06 10:47:33;;;;;;;4.22;2.33;;;26.40;99.90;;;;;;5040251;28;20081;-83
2023/09/06 10:50:14;;;;;;;3.30;2.20;;;26.50;99.90;;;;;;5040643;28;20037;-83
2023/09/06 10:52:49;;;;;;;2.63;2.28;;;26.60;99.90;;;;;;5063989;28;20480;-85
2023/09/06 10:55:22;;;;;;;3.83;2.70;;;26.70;99.90;;;;;;5051262;28;20072;-86
2023/09/06 10:58:03;;;;;;;3.00;2.60;;;26.70;99.90;;;;;;5053819;28;20060;-87
2023/09/06 11:00:31;;;;;;;3.60;2.70;;;26.90;99.90;;;;;;5041243;28;20073;-86
2023/09/06 11:03:08;;;;;;;3.55;2.40;;;26.90;99.90;;;;;;5043617;28;20052;-86
2023/09/06 11:05:37;;;;;;;3.30;2.25;;;27.00;99.90;;;;;;5031349;28;20054;-89
2023/09/06 11:08:04;;;;;;;4.65;2.47;;;27.00;99.90;;;;;;5046348;28;20145;-89
2023/09/06 11:10:30;;;;;;;3.78;2.47;;;27.10;99.90;;;;;;5050304;28;20556;-88
2023/09/06 11:13:10;;;;;;;4.30;2.35;;;27.20;99.90;;;;;;5050564;28;20044;-89
2023/09/06 11:15:36;;;;;;;3.78;2.47;;;27.20;99.90;;;;;;5045234;28;20048;-87
2023/09/06 11:18:03;;;;;;;3.33;2.53;;;27.30;99.90;;;;;;5046208;28;20092;-87
2023/09/06 11:20:32;;;;;;;;;;;27.40;99.90;;;;;;5051653;28;20037;-88
2023/09/06 11:22:59;;;;;;;3.15;2.22;;;27.40;99.90;;;;;;5048809;28;19988;-85
2023/09/06 11:25:26;;;;;;;3.67;2.10;;;27.50;99.90;;;;;;5047105;28;20075;-85
2023/09/06 11:27:55;;;;;;;3.42;2.17;;;27.60;99.90;;;;;;5042837;28;20124;-85
2023/09/06 11:30:23;;;;;;;4.28;2.58;;;27.60;99.90;;;;;;5047342;28;20041;-87
2023/09/06 11:32:53;;;;;;;4.40;2.05;;;27.70;99.90;;;;;;5042679;28;20119;-87
2023/09/06 11:35:22;;;;;;;4.72;2.65;;;27.70;99.90;;;;;;5047680;28;20070;-89
2023/09/06 11:37:50;;;;;;;2.60;2.30;;;27.70;99.90;;;;;;5052681;28;20048;-87
2023/09/06 11:40:20;;;;;;;3.53;2.47;;;27.90;99.90;;;;;;5038281;28;20423;-86
2023/09/06 11:42:53;;;;;;;3.05;2.00;;;27.90;99.70;;;;;;5048687;28;20640;-87
2023/09/06 11:45:20;;;;;;;4.28;2.30;;;28.00;99.40;;;;;;5048382;28;20041;-88
2023/09/06 11:47:47;;;;;;;4.50;2.47;;;28.00;99.20;;;;;;5039673;28;20051;-88
2023/09/06 11:50:18;;;;;;;2.72;2.20;;;28.10;99.30;;;;;;5049385;28;20037;-87
2023/09/06 11:52:49;;;;;;;3.58;2.30;;;28.10;99.30;;;;;;5049999;28;20053;-93
2023/09/06 11:55:19;;;;;;;3.35;2.00;;;28.20;99.90;;;;;;5034929;28;20069;-89
2023/09/06 11:57:52;;;;;;;3.70;2.33;;;28.20;99.50;;;;;;5035461;28;20043;-89
2023/09/06 12:00:36;;;;;;;3.97;2.45;;;28.20;99.40;;;;;;5064573;28;20052;-87
2023/09/06 12:03:07;;;;;;;3.38;2.20;;;28.30;99.20;;;;;;5045439;28;20041;-88
2023/09/06 12:05:40;;;;;;;5.03;2.40;;;28.40;99.30;;;;;;5043546;28;20076;-89
2023/09/06 12:08:07;;;;;;;3.53;2.50;;;28.40;98.80;;;;;;5046695;28;20053;-89
2023/09/06 12:10:38;;;;;;;4.70;2.20;;;28.50;99.00;;;;;;5049622;28;20033;-91
2023/09/06 12:13:07;;;;;;;3.13;2.30;;;28.60;99.60;;;;;;5056044;28;20103;-89
2023/09/06 12:15:33;;;;;;;4.47;2.20;;;28.60;99.10;;;;;;5035935;28;20080;-88
2023/09/06 12:17:59;;;;;;;6.47;2.40;;;28.70;99.20;;;;;;5048782;28;20091;-87
2023/09/06 12:20:25;;;;;;;4.15;2.38;;;28.70;98.80;;;;;;5049948;28;20125;-87
2023/09/06 12:22:55;;;;;;;5.27;2.37;;;28.80;98.60;;;;;;5041873;28;20112;-86
2023/09/06 12:25:20;;;;;;;4.82;2.22;;;28.80;98.40;;;;;;5044680;28;20484;-88
2023/09/06 12:27:47;;;;;;;5.83;2.50;;;28.80;98.40;;;;;;5046189;28;20045;-88
2023/09/06 12:30:16;;;;;;;3.17;2.28;;;28.90;98.60;;;;;;5047289;28;20048;-88
2023/09/06 12:32:42;;;;;;;5.40;2.45;;;28.90;98.40;;;;;;5039372;28;20534;-86
2023/09/06 12:35:09;;;;;;;4.03;2.20;;;29.00;98.40;;;;;;5038813;28;20045;-88
2023/09/06 12:37:39;;;;;;;4.22;2.33;;;29.10;98.60;;;;;;5042557;28;20047;-86
2023/09/06 12:40:10;;;;;;;4.13;2.30;;;29.10;98.20;;;;;;5045390;28;20056;-86
2023/09/06 12:42:43;;;;;;;4.43;2.30;;;29.10;98.60;;;;;;5047407;28;20036;-86
2023/09/06 12:45:16;;;;;;;4.80;2.47;;;29.20;98.50;;;;;;5041821;28;20493;-90
2023/09/06 12:47:42;;;;;;;2.58;2.35;;;29.20;98.10;;;;;;5049407;28;20052;-85
2023/09/06 12:50:08;;;;;;;3.77;2.07;;;29.20;98.40;;;;;;5046493;28;20101;-91
2023/09/06 12:52:34;;;;;;;6.22;2.42;;;29.20;98.10;;;;;;5041001;28;20106;-90